Time;durP1;ratioP1;P1;durP2;ratioP2;P2;SDS_P1;SDS_P2;PMS_P1;PMS_P2;Temp;Humidity;BMP_temperature;BMP_pressure;BME280_temperature;BME280_humidity;BME280_pressure;Samples;Min_cycle;Max_cycle;Signal;HPM_P1;HPM_P2
2022/05/03 00:00:09;;;;;;;4.45;2.25;;;;;;;7.99;88.20;100961.16;1736003;82;20965;-44
2022/05/03 00:03:25;;;;;;;6.87;3.02;;;;;;;8.05;88.72;100958.16;1735762;82;21138;-44
2022/05/03 00:06:11;;;;;;;8.68;2.90;;;;;;;8.10;88.70;100959.88;1735991;81;20923;-44
2022/05/03 00:08:53;;;;;;;5.08;2.77;;;;;;;8.10;88.71;100958.58;1735609;82;20925;-44
2022/05/03 00:11:28;;;;;;;5.95;3.05;;;;;;;8.05;88.65;100960.73;1736018;82;21471;-44
2022/05/03 00:14:35;;;;;;;2.72;2.42;;;;;;;8.03;88.97;100957.30;1735859;82;21463;-44
2022/05/03 00:17:01;;;;;;;;;;;;;;;8.04;89.00;100950.00;1719821;82;21856;-44
2022/05/03 00:19:28;;;;;;;5.30;2.70;;;;;;;8.02;89.20;100953.00;1735959;82;20166;-44
2022/05/03 00:21:54;;;;;;;14.73;3.30;;;;;;;7.99;89.27;100947.85;1735938;82;21458;-44
2022/05/03 00:24:21;;;;;;;9.08;2.98;;;;;;;8.00;89.39;100948.28;1735835;82;20929;-44
2022/05/03 00:26:48;;;;;;;9.15;2.92;;;;;;;7.99;89.27;100943.98;1715135;82;20941;-44
2022/05/03 00:29:15;;;;;;;5.78;2.95;;;;;;;7.97;89.24;100947.41;1735955;82;21032;-44
2022/05/03 00:31:43;;;;;;;8.65;2.90;;;;;;;7.90;89.03;100947.83;1715125;82;21043;-44
2022/05/03 00:34:09;;;;;;;10.03;2.75;;;;;;;7.80;89.11;100954.69;1735816;82;20918;-44
2022/05/03 00:36:36;;;;;;;21.27;3.20;;;;;;;7.70;89.48;100949.95;1726931;81;20991;-44
2022/05/03 00:39:02;;;;;;;20.72;3.40;;;;;;;7.62;90.21;100946.09;1757556;80;20967;-44
2022/05/03 00:41:58;;;;;;;3.85;3.10;;;;;;;7.59;90.42;100939.66;1757566;81;21142;-44
2022/05/03 00:47:20;;;;;;;4.37;2.75;;;;;;;7.52;90.86;100931.46;1757662;81;20928;-42
2022/05/03 00:50:08;;;;;;;10.32;2.65;;;;;;;7.48;91.52;100936.19;1757643;81;20928;-43
2022/05/03 00:52:42;;;;;;;4.17;2.50;;;;;;;7.46;91.46;100939.19;1757449;80;20920;-42
2022/05/03 00:55:38;;;;;;;5.83;2.92;;;;;;;7.41;91.54;100935.75;1716780;81;21318;-42
2022/05/03 00:58:27;;;;;;;7.08;3.02;;;;;;;7.36;91.97;100936.17;1757756;81;20888;-42
2022/05/03 01:01:07;;;;;;;23.67;3.55;;;;;;;7.35;92.29;100930.14;1738713;81;20935;-42
2022/05/03 01:03:52;;;;;;;3.40;2.40;;;;;;;7.35;92.62;100926.28;1757455;81;20940;-42
2022/05/03 01:06:31;;;;;;;5.72;3.27;;;;;;;7.30;92.72;100933.14;1726496;81;20975;-42
2022/05/03 01:09:07;;;;;;;4.92;3.20;;;;;;;7.22;93.04;100929.69;1757539;81;22176;-42
2022/05/03 01:12:00;;;;;;;4.20;3.25;;;;;;;7.15;93.31;100929.65;1757615;81;20975;-42
2022/05/03 01:15:04;;;;;;;6.80;3.08;;;;;;;7.09;93.69;100929.64;1757426;81;20897;-42
2022/05/03 01:17:43;;;;;;;5.10;2.80;;;;;;;7.01;94.55;100930.89;1757544;81;20888;-42
2022/05/03 01:20:15;;;;;;;5.92;2.65;;;;;;;6.92;94.90;100932.56;1729823;81;20988;-42
2022/05/03 01:23:16;;;;;;;4.90;3.00;;;;;;;6.78;95.38;100932.09;1757323;80;21160;-42
2022/05/03 01:26:25;;;;;;;13.93;3.05;;;;;;;6.68;95.93;100930.30;1757545;81;20932;-42
2022/05/03 01:29:20;;;;;;;6.10;2.52;;;;;;;6.57;96.57;100932.41;1757749;81;20971;-42
2022/05/03 01:31:47;;;;;;;2.77;2.58;;;;;;;6.46;97.18;100928.92;1730072;81;22384;-42
2022/05/03 01:34:16;;;;;;;4.92;2.80;;;;;;;6.31;97.35;100933.09;1757550;81;20923;-42
2022/05/03 01:37:13;;;;;;;3.17;2.60;;;;;;;6.24;98.00;100934.33;1751983;81;21247;-42
2022/05/03 01:40:12;;;;;;;6.25;3.33;;;;;;;6.15;98.61;100928.69;1749993;82;20961;-42
2022/05/03 01:43:09;;;;;;;5.65;2.75;;;;;;;6.10;99.42;100929.08;1749887;82;20877;-43
2022/05/03 01:46:05;;;;;;;10.25;3.30;;;;;;;6.16;100.00;100928.70;1749897;82;26798;-43
2022/05/03 01:52:10;;;;;;;4.67;3.65;;;;;;;6.27;100.00;100926.62;1738581;82;21174;-43
2022/05/03 01:54:59;;;;;;;4.95;3.20;;;;;;;6.24;100.00;100921.06;1749237;82;20932;-43
2022/05/03 01:58:06;;;;;;;9.45;3.22;;;;;;;6.23;100.00;100927.05;1749611;82;20936;-43
2022/05/03 02:00:35;;;;;;;5.73;3.20;;;;;;;6.24;100.00;100925.33;1750267;82;20892;-43
2022/05/03 02:03:25;;;;;;;3.08;2.62;;;;;;;6.19;100.00;100922.74;1749894;81;20999;-42
2022/05/03 02:06:02;;;;;;;4.67;3.00;;;;;;;6.16;100.00;100922.69;1722010;82;21165;-43
2022/05/03 02:08:53;;;;;;;3.45;3.12;;;;;;;6.13;100.00;100925.25;1749897;82;20885;-43
2022/05/03 02:11:48;;;;;;;3.22;2.90;;;;;;;6.11;100.00;100919.23;1749761;81;20924;-43
2022/05/03 02:14:45;;;;;;;3.37;2.92;;;;;;;6.04;100.00;100923.05;1749812;82;20972;-42
2022/05/03 02:17:49;;;;;;;6.35;3.22;;;;;;;5.98;100.00;100926.83;1750080;81;20837;-44
2022/05/03 02:20:56;;;;;;;4.62;3.40;;;;;;;5.89;100.00;100929.30;1722473;82;21149;-44
2022/05/03 02:23:47;;;;;;;5.62;3.60;;;;;;;5.78;100.00;100930.94;1749887;81;20849;-44
2022/05/03 02:26:45;;;;;;;7.95;3.85;;;;;;;5.68;100.00;100923.56;1750066;82;21213;-44
2022/05/03 02:29:15;;;;;;;5.28;2.75;;;;;;;5.63;100.00;100927.36;1746845;82;20920;-44
2022/05/03 02:32:22;;;;;;;8.33;3.33;;;;;;;5.62;100.00;100928.20;1750004;82;20916;-44
2022/05/03 02:34:56;;;;;;;5.37;3.62;;;;;;;5.60;100.00;100928.63;1748763;82;22023;-44
2022/05/03 02:37:25;;;;;;;6.75;3.02;;;;;;;5.60;100.00;100932.47;1749603;81;21408;-44
2022/05/03 02:40:02;;;;;;;6.75;3.37;;;;;;;5.53;100.00;100935.40;1722326;82;20940;-44
2022/05/03 02:42:29;;;;;;;5.53;3.25;;;;;;;5.48;100.00;100933.21;1749981;82;21459;-43
2022/05/03 02:44:56;;;;;;;15.20;3.30;;;;;;;5.42;100.00;100936.56;1749954;82;20873;-44
2022/05/03 02:47:59;;;;;;;4.47;2.95;;;;;;;5.37;100.00;100936.95;1749928;82;21123;-44
2022/05/03 02:50:41;;;;;;;7.03;3.30;;;;;;;5.35;100.00;100939.92;1749953;82;20924;-44
2022/05/03 02:53:09;;;;;;;4.65;3.42;;;;;;;5.31;100.00;100936.89;1722408;82;20857;-44
2022/05/03 02:55:50;;;;;;;11.43;7.17;;;;;;;5.35;100.00;100929.66;1749853;82;20983;-44
2022/05/03 02:59:07;;;;;;;17.48;8.43;;;;;;;5.42;100.00;100933.16;1749257;82;20913;-44
2022/05/03 03:01:56;;;;;;;18.75;11.30;;;;;;;5.46;100.00;100922.94;1749421;82;21994;-44
2022/05/03 03:04:46;;;;;;;5.10;4.20;;;;;;;5.50;100.00;100934.53;1750021;82;20901;-42
2022/05/03 03:07:21;;;;;;;3.30;3.00;;;;;;;5.49;100.00;100936.22;1750004;82;21019;-43
2022/05/03 03:10:04;;;;;;;7.17;3.08;;;;;;;5.53;100.00;100936.68;1750003;82;20963;-43
2022/05/03 03:12:42;;;;;;;3.30;2.52;;;;;;;5.59;100.00;100935.89;1750136;82;21442;-43
2022/05/03 03:15:11;;;;;;;3.75;2.83;;;;;;;5.65;100.00;100941.08;1747634;82;21210;-43
2022/05/03 03:17:43;;;;;;;5.83;2.65;;;;;;;5.75;100.00;100940.75;1722224;82;20925;-43
2022/05/03 03:20:12;;;;;;;5.70;2.72;;;;;;;5.87;100.00;100940.00;1749003;82;21121;-43
2022/05/03 03:22:47;;;;;;;6.55;3.00;;;;;;;6.01;100.00;100940.14;1749935;82;20948;-43
2022/05/03 03:25:19;;;;;;;7.15;3.08;;;;;;;6.18;100.00;100941.56;1749951;81;21565;-43
2022/05/03 03:27:48;;;;;;;6.62;2.80;;;;;;;6.32;100.00;100936.10;1749854;82;21239;-43
2022/05/03 03:30:16;;;;;;;3.20;2.90;;;;;;;6.46;100.00;100936.63;1749713;81;20940;-43
2022/05/03 03:32:48;;;;;;;17.77;3.50;;;;;;;6.64;100.00;100945.29;1749873;82;20968;-43
2022/05/03 03:35:16;;;;;;;7.85;2.62;;;;;;;6.79;100.00;100947.95;1749924;82;20992;-43
2022/05/03 03:37:46;;;;;;;6.70;2.62;;;;;;;6.93;100.00;100939.43;1749867;82;20916;-42
2022/05/03 03:40:15;;;;;;;4.15;2.70;;;;;;;7.10;100.00;100939.08;1749917;82;21281;-42
2022/05/03 03:42:43;;;;;;;6.20;2.42;;;;;;;7.30;100.00;100941.71;1749880;82;21015;-43
2022/05/03 03:45:12;;;;;;;7.45;2.50;;;;;;;7.52;100.00;100937.06;1749868;82;20995;-43
2022/05/03 03:47:40;;;;;;;3.27;2.33;;;;;;;7.75;100.00;100939.24;1722571;82;20928;-42
2022/05/03 03:50:08;;;;;;;4.95;2.50;;;;;;;7.99;100.00;100942.70;1749982;82;20889;-43
2022/05/03 03:52:39;;;;;;;5.90;2.30;;;;;;;8.25;100.00;100939.24;1722678;82;21227;-43
2022/05/03 03:55:09;;;;;;;9.15;2.17;;;;;;;8.55;100.00;100942.66;1749774;82;20881;-43
2022/05/03 03:57:36;;;;;;;2.50;2.30;;;;;;;8.85;100.00;100940.00;1722700;82;21007;-43
2022/05/03 04:00:09;;;;;;;3.02;2.30;;;;;;;9.14;99.03;100937.28;1749942;81;21435;-43
2022/05/03 04:02:41;;;;;;;5.08;2.30;;;;;;;9.43;97.03;100936.27;1723207;82;21338;-42
2022/05/03 04:05:20;;;;;;;5.83;2.12;;;;;;;9.72;94.57;100944.25;1722231;82;21772;-43
2022/05/03 04:07:47;;;;;;;5.17;1.75;;;;;;;9.94;91.17;100946.69;1723174;82;20986;-43
2022/05/03 04:10:14;;;;;;;5.42;2.15;;;;;;;10.16;88.50;100942.63;1749952;82;20909;-43
2022/05/03 04:12:41;;;;;;;3.90;2.12;;;;;;;10.35;87.39;100942.02;1749765;82;20924;-43
2022/05/03 04:15:08;;;;;;;6.47;2.00;;;;;;;10.57;85.91;100942.70;1749982;82;20960;-43
2022/05/03 04:17:36;;;;;;;2.65;1.90;;;;;;;10.77;83.63;100947.66;1722546;82;21786;-43
2022/05/03 04:20:05;;;;;;;5.62;2.05;;;;;;;10.95;82.07;100952.20;1749867;82;21660;-44
2022/05/03 04:22:35;;;;;;;5.78;1.98;;;;;;;11.09;80.80;100942.09;1698590;82;20838;-43
2022/05/03 04:25:03;;;;;;;4.87;2.22;;;;;;;11.26;78.95;100945.78;1749695;82;20928;-44
2022/05/03 04:27:31;;;;;;;4.53;2.20;;;;;;;11.36;78.03;100949.95;1749871;81;20849;-43
2022/05/03 04:29:59;;;;;;;5.17;1.70;;;;;;;11.47;76.34;100945.46;1750025;82;21458;-44
2022/05/03 04:32:31;;;;;;;7.17;2.20;;;;;;;11.60;75.91;100944.00;1692839;83;21007;-44
2022/05/03 04:34:57;;;;;;;6.90;2.42;;;;;;;11.73;74.80;100948.11;1715227;82;21051;-43
2022/05/03 04:37:24;;;;;;;2.95;2.10;;;;;;;11.90;74.76;100954.35;1741882;81;20905;-43
2022/05/03 04:39:51;;;;;;;8.85;2.22;;;;;;;12.06;73.34;100955.41;1735842;82;20937;-44
2022/05/03 04:42:18;;;;;;;3.95;2.25;;;;;;;12.18;73.16;100946.56;1735888;81;21157;-44
2022/05/03 04:44:45;;;;;;;4.08;1.95;;;;;;;12.25;72.89;100948.19;1735764;81;20968;-43
2022/05/03 04:47:12;;;;;;;4.10;1.70;;;;;;;12.39;72.40;100947.07;1736035;82;21419;-44
2022/05/03 04:49:39;;;;;;;3.02;2.15;;;;;;;12.53;71.69;100940.33;1735884;82;21008;-45
2022/05/03 04:52:06;;;;;;;10.63;1.90;;;;;;;12.56;71.17;100948.92;1736064;82;20968;-42
2022/05/03 04:54:34;;;;;;;6.50;2.02;;;;;;;12.69;70.52;100939.58;1735918;82;21883;-43
2022/05/03 04:57:03;;;;;;;3.27;1.98;;;;;;;12.79;69.32;100945.03;1715399;82;21396;-44
2022/05/03 04:59:29;;;;;;;2.17;1.92;;;;;;;12.87;68.09;100940.52;1711506;82;21460;-43
2022/05/03 05:01:56;;;;;;;9.13;2.35;;;;;;;12.96;67.56;100942.52;1735780;82;21023;-44
2022/05/03 05:04:24;;;;;;;4.15;1.92;;;;;;;13.05;67.59;100941.04;1735839;82;20975;-45
2022/05/03 05:06:50;;;;;;;3.47;2.08;;;;;;;13.16;66.87;100936.45;1735806;82;21486;-45
2022/05/03 05:09:17;;;;;;;4.83;1.87;;;;;;;13.28;67.12;100944.89;1735861;82;20961;-45
2022/05/03 05:11:44;;;;;;;4.95;2.20;;;;;;;13.49;67.00;100938.37;1714987;82;20960;-45
2022/05/03 05:14:10;;;;;;;6.42;2.20;;;;;;;13.71;66.03;100937.42;1735789;82;20941;-44
2022/05/03 05:16:37;;;;;;;10.10;1.90;;;;;;;13.97;65.77;100942.44;1735896;82;20941;-42
2022/05/03 05:19:04;;;;;;;5.72;1.90;;;;;;;14.16;63.87;100934.17;1735903;82;21184;-42
2022/05/03 05:21:31;;;;;;;5.47;1.95;;;;;;;14.31;63.04;100940.29;1735857;82;20870;-42
2022/05/03 05:23:57;;;;;;;3.20;2.52;;;;;;;14.47;62.57;100941.16;1735856;82;20972;-42
2022/05/03 05:26:24;;;;;;;8.08;2.40;;;;;;;14.65;62.01;100938.06;1735744;82;20941;-43
2022/05/03 05:28:53;;;;;;;3.92;2.42;;;;;;;14.76;60.86;100940.84;1735925;82;21566;-42
2022/05/03 05:31:19;;;;;;;2.83;2.10;;;;;;;14.78;60.83;100941.21;1735879;82;21266;-42
2022/05/03 05:33:47;;;;;;;3.15;2.30;;;;;;;14.83;59.71;100941.09;1735751;82;20925;-44
2022/05/03 05:36:13;;;;;;;2.27;2.15;;;;;;;14.77;59.38;100932.12;1735782;82;20980;-44
2022/05/03 05:38:40;;;;;;;5.10;2.45;;;;;;;14.77;60.67;100933.42;1748916;82;20932;-43
2022/05/03 05:41:14;;;;;;;6.83;2.60;;;;;;;14.81;59.91;100928.55;1749747;81;21529;-43
2022/05/03 05:43:41;;;;;;;7.33;2.22;;;;;;;14.89;60.36;100925.27;1749924;82;21069;-43
2022/05/03 05:46:08;;;;;;;2.72;1.82;;;;;;;14.90;58.51;100934.80;1749814;82;21533;-44
2022/05/03 05:48:35;;;;;;;5.65;1.98;;;;;;;14.91;58.84;100923.94;1749800;82;20967;-44
2022/05/03 05:55:47;;;;;;;3.50;2.15;;;;;;;15.15;58.75;100925.37;1758251;81;20873;-44
2022/05/03 05:58:13;;;;;;;10.18;2.17;;;;;;;15.29;58.12;100918.00;1757915;81;21056;-44
2022/05/03 06:00:40;;;;;;;6.92;2.55;;;;;;;15.46;58.31;100916.17;1758005;81;21015;-44
2022/05/03 06:03:07;;;;;;;3.02;2.37;;;;;;;15.55;57.85;100920.25;1758087;81;21463;-45
2022/05/03 06:05:33;;;;;;;2.83;2.47;;;;;;;15.64;57.89;100925.16;1696090;83;20978;-43
2022/05/03 06:08:00;;;;;;;3.92;2.45;;;;;;;15.74;57.12;100914.44;1724678;83;20900;-43
2022/05/03 06:10:29;;;;;;;6.87;2.10;;;;;;;15.69;56.90;100917.19;1720137;83;21038;-44
2022/05/03 06:12:56;;;;;;;3.12;2.17;;;;;;;15.74;56.84;100910.05;1724411;83;21473;-45
2022/05/03 06:15:23;;;;;;;7.65;2.75;;;;;;;15.84;57.53;100914.99;1724714;83;20955;-44
2022/05/03 06:17:52;;;;;;;3.92;2.40;;;;;;;15.89;56.23;100903.97;1724527;83;20970;-45
2022/05/03 06:20:18;;;;;;;9.90;2.70;;;;;;;15.91;56.37;100908.69;1724462;83;20975;-43
2022/05/03 06:22:45;;;;;;;5.92;2.60;;;;;;;16.16;56.79;100913.08;1724612;83;21103;-44
2022/05/03 06:25:11;;;;;;;9.90;2.40;;;;;;;16.45;56.38;100909.88;1724483;83;21541;-43
2022/05/03 06:27:38;;;;;;;3.47;2.00;;;;;;;16.58;54.57;100899.84;1724527;83;20932;-45
2022/05/03 06:30:07;;;;;;;3.72;2.12;;;;;;;16.58;54.66;100904.63;1724435;83;20975;-45
2022/05/03 06:32:35;;;;;;;2.25;2.00;;;;;;;16.65;53.28;100907.84;1719853;81;21524;-44
2022/05/03 06:35:02;;;;;;;10.78;1.90;;;;;;;16.66;53.66;100908.24;1724515;83;21144;-45
2022/05/03 06:37:29;;;;;;;4.92;2.58;;;;;;;16.73;53.27;100899.73;1724513;83;20943;-43
2022/05/03 06:39:56;;;;;;;10.25;2.60;;;;;;;16.89;53.00;100899.56;1721648;83;20979;-45
2022/05/03 06:42:23;;;;;;;6.30;2.02;;;;;;;16.89;52.21;100893.46;1670711;84;21055;-45
2022/05/03 06:44:49;;;;;;;3.65;1.62;;;;;;;17.01;51.28;100899.58;1716618;82;20947;-45
2022/05/03 06:47:16;;;;;;;5.65;2.40;;;;;;;17.13;50.85;100898.70;1709085;82;21251;-45
2022/05/03 06:49:43;;;;;;;7.67;2.12;;;;;;;17.32;50.18;100897.06;1708854;84;20998;-45
2022/05/03 06:52:10;;;;;;;4.55;1.98;;;;;;;17.47;50.29;100892.14;1713341;83;20930;-45
2022/05/03 06:54:37;;;;;;;12.88;2.22;;;;;;;17.42;49.61;100892.76;1722114;83;20935;-45
2022/05/03 06:57:04;;;;;;;14.65;2.83;;;;;;;17.58;47.52;100896.95;1693288;83;20947;-45
2022/05/03 06:59:31;;;;;;;78.67;2.95;;;;;;;17.66;47.52;100892.23;1693330;84;21142;-45
2022/05/03 07:01:58;;;;;;;15.50;2.17;;;;;;;17.74;46.81;100890.14;1722107;83;21011;-45
2022/05/03 07:04:25;;;;;;;8.93;2.12;;;;;;;17.87;45.39;100887.02;1721801;83;20935;-44
2022/05/03 07:06:52;;;;;;;4.90;2.17;;;;;;;18.04;43.25;100884.55;1692815;84;21015;-44
2022/05/03 07:09:18;;;;;;;5.45;1.85;;;;;;;18.10;42.60;100884.75;1692691;84;20995;-44
2022/05/03 07:11:45;;;;;;;2.98;2.05;;;;;;;18.13;43.79;100890.33;1721590;83;21044;-44
2022/05/03 07:14:12;;;;;;;1.87;1.70;;;;;;;18.18;42.60;100882.64;1721381;83;21509;-44
2022/05/03 07:16:39;;;;;;;2.70;1.82;;;;;;;18.37;41.46;100881.39;1692622;84;21025;-44
2022/05/03 07:24:36;;;;;;;8.30;2.67;;;;;;;19.17;39.96;100877.78;1692943;84;21458;-44
2022/05/03 07:27:04;;;;;;;2.35;2.02;;;;;;;19.26;38.44;100871.25;1692748;84;21066;-45
2022/05/03 07:29:31;;;;;;;3.62;2.15;;;;;;;19.22;37.94;100878.44;1692691;84;20963;-45
2022/05/03 07:31:58;;;;;;;4.28;2.05;;;;;;;19.07;37.14;100880.00;1692795;83;21493;-45
2022/05/03 07:34:25;;;;;;;7.87;2.10;;;;;;;19.01;36.52;100880.30;1692806;83;20919;-46
2022/05/03 07:36:52;;;;;;;1.82;1.70;;;;;;;19.08;36.53;100864.67;1721738;83;21087;-46
2022/05/03 07:39:18;;;;;;;9.48;1.62;;;;;;;19.28;34.33;100868.95;1721507;83;20911;-45
2022/05/03 07:41:45;;;;;;;2.83;2.17;;;;;;;19.56;34.96;100865.41;1692665;84;21564;-46
2022/05/03 07:44:11;;;;;;;5.03;1.70;;;;;;;19.91;35.19;100869.41;1692772;84;20963;-46
2022/05/03 07:46:38;;;;;;;4.65;2.30;;;;;;;20.27;35.59;100857.89;1692704;84;20987;-46
2022/05/03 07:49:04;;;;;;;2.83;1.87;;;;;;;20.49;34.22;100852.80;1721497;83;21039;-45
2022/05/03 07:51:31;;;;;;;4.83;2.17;;;;;;;20.65;32.90;100854.98;1719437;82;20939;-44
2022/05/03 07:53:57;;;;;;;7.05;2.00;;;;;;;20.68;32.01;100856.13;1696120;84;20980;-46
2022/05/03 07:56:24;;;;;;;7.90;2.10;;;;;;;20.68;32.46;100849.56;1695937;84;21003;-46
2022/05/03 07:58:50;;;;;;;2.42;1.87;;;;;;;20.65;32.01;100844.47;1695901;83;20980;-45
2022/05/03 08:01:17;;;;;;;1.67;1.50;;;;;;;20.68;32.49;100848.24;1695950;84;21140;-45
2022/05/03 08:03:44;;;;;;;5.22;1.72;;;;;;;20.83;31.87;100850.97;1695726;83;21526;-44
2022/05/03 08:06:11;;;;;;;4.95;2.05;;;;;;;21.12;31.64;100838.44;1695895;84;20996;-45
2022/05/03 08:08:38;;;;;;;3.10;2.00;;;;;;;21.36;30.96;100841.47;1696033;83;20981;-46
2022/05/03 08:11:05;;;;;;;6.47;1.70;;;;;;;21.28;30.78;100843.22;1666091;84;21016;-44
2022/05/03 08:13:31;;;;;;;2.75;1.47;;;;;;;20.99;30.78;100837.84;1695910;83;21040;-45
2022/05/03 08:15:58;;;;;;;16.05;1.62;;;;;;;20.79;29.65;100838.90;1695820;84;20956;-45
2022/05/03 08:18:24;;;;;;;3.42;1.40;;;;;;;20.83;27.23;100838.30;1695913;83;20979;-45
2022/05/03 08:20:52;;;;;;;1.70;1.60;;;;;;;20.95;29.26;100833.66;1695803;84;20933;-45
2022/05/03 08:23:19;;;;;;;4.90;1.92;;;;;;;21.00;29.45;100829.01;1696091;84;21499;-45
2022/05/03 08:25:45;;;;;;;2.45;1.70;;;;;;;21.03;31.68;100829.28;1695996;84;21143;-45
2022/05/03 08:28:13;;;;;;;3.10;1.52;;;;;;;21.18;32.38;100832.83;1695829;84;21020;-44
2022/05/03 08:30:40;;;;;;;3.98;1.85;;;;;;;21.34;29.90;100824.43;1696069;84;21657;-45
2022/05/03 08:33:07;;;;;;;9.18;1.67;;;;;;;21.40;29.93;100823.23;1695954;84;20928;-45
2022/05/03 08:35:35;;;;;;;6.87;2.17;;;;;;;21.48;28.89;100823.63;1696029;84;21012;-46
2022/05/03 08:43:32;;;;;;;6.93;2.07;;;;;;;21.56;28.60;100824.95;1696111;84;20881;-44
2022/05/03 08:45:59;;;;;;;5.37;1.60;;;;;;;21.30;29.26;100821.60;1695818;84;21004;-44
2022/05/03 08:48:29;;;;;;;2.08;1.77;;;;;;;21.11;28.66;100820.51;1695964;84;20988;-44
2022/05/03 08:50:56;;;;;;;4.47;1.60;;;;;;;20.97;28.74;100817.34;1695828;84;21087;-44
2022/05/03 08:53:22;;;;;;;4.05;1.45;;;;;;;21.02;29.94;100819.24;1699906;83;21015;-44
2022/05/03 08:55:50;;;;;;;5.97;2.30;;;;;;;21.03;30.16;100814.36;1711188;83;21623;-44
2022/05/03 08:58:18;;;;;;;3.52;1.72;;;;;;;20.93;29.23;100810.53;1701374;84;21659;-44
2022/05/03 09:00:45;;;;;;;2.25;1.70;;;;;;;20.92;30.27;100807.08;1711025;82;20936;-45
2022/05/03 09:03:12;;;;;;;5.47;1.50;;;;;;;21.03;30.58;100805.60;1701375;84;22040;-44
2022/05/03 09:05:39;;;;;;;1.95;1.75;;;;;;;21.24;29.18;100805.69;1710985;83;20944;-45
2022/05/03 09:08:08;;;;;;;5.65;1.80;;;;;;;21.20;27.73;100801.55;1701411;84;21012;-44
2022/05/03 09:10:37;;;;;;;7.55;2.00;;;;;;;21.06;27.31;100797.08;1662615;85;20999;-45
2022/05/03 09:13:22;;;;;;;5.58;1.70;;;;;;;21.21;29.02;100799.29;1710950;83;20982;-45
2022/05/03 09:15:56;;;;;;;7.40;1.50;;;;;;;21.43;27.34;100796.72;1701577;84;21884;-45
2022/05/03 09:18:30;;;;;;;7.67;2.35;;;;;;;21.62;27.97;100791.69;1711000;83;21014;-46
2022/05/03 09:23:51;;;;;;;1.60;1.50;;;;;;;21.92;27.44;100788.16;1711237;83;21003;-45
2022/05/03 09:26:23;;;;;;;2.05;1.67;;;;;;;22.46;26.54;100786.61;1689428;84;20928;-45
2022/05/03 09:29:03;;;;;;;6.12;1.40;;;;;;;22.76;25.93;100781.19;1685637;83;21991;-45
2022/05/03 09:31:47;;;;;;;1.92;1.40;;;;;;;22.37;26.80;100778.80;1711028;83;20892;-45
2022/05/03 09:34:26;;;;;;;2.95;1.72;;;;;;;22.07;26.11;100775.34;1701343;84;20983;-46
2022/05/03 09:37:00;;;;;;;3.92;1.52;;;;;;;22.02;26.65;100768.69;1711227;83;20920;-45
2022/05/03 09:39:29;;;;;;;5.70;1.70;;;;;;;22.19;27.38;100773.73;1701287;84;20908;-45
2022/05/03 09:42:17;;;;;;;2.05;1.80;;;;;;;22.54;26.23;100773.80;1710929;83;22121;-45
2022/05/03 09:44:57;;;;;;;4.17;1.80;;;;;;;23.01;26.15;100770.80;1701258;84;21026;-45
2022/05/03 09:47:29;;;;;;;4.35;1.80;;;;;;;23.37;24.49;100764.89;1711059;83;21432;-45
2022/05/03 09:49:56;;;;;;;3.95;1.62;;;;;;;23.38;25.08;100757.83;1701408;84;21506;-45
2022/05/03 09:52:29;;;;;;;25.82;2.25;;;;;;;23.54;26.38;100758.45;1708818;83;20937;-45
2022/05/03 09:55:07;;;;;;;4.42;1.77;;;;;;;23.82;25.21;100753.06;1695068;84;21206;-45
2022/05/03 09:57:40;;;;;;;3.58;1.72;;;;;;;23.66;25.79;100756.76;1695896;84;21056;-45
2022/05/03 10:00:10;;;;;;;2.95;1.85;;;;;;;23.64;24.97;100750.73;1695718;84;21023;-45
2022/05/03 10:02:42;;;;;;;4.47;2.00;;;;;;;23.83;24.10;100743.69;1695824;84;20951;-46
2022/05/03 10:05:11;;;;;;;4.15;1.65;;;;;;;23.73;24.08;100734.73;1695823;84;21015;-46
2022/05/03 10:07:40;;;;;;;5.30;1.67;;;;;;;23.43;25.45;100737.22;1687988;84;21098;-45
2022/05/03 10:10:08;;;;;;;20.25;2.75;;;;;;;23.48;25.37;100736.42;1695947;84;21475;-45
2022/05/03 10:12:36;;;;;;;8.35;1.70;;;;;;;23.86;24.56;100736.49;1695764;84;21008;-45
2022/05/03 10:15:03;;;;;;;1.50;1.40;;;;;;;24.27;24.48;100734.56;1695899;84;21007;-45
2022/05/03 10:20:46;;;;;;;8.48;1.77;;;;;;;24.43;24.60;100720.56;1695778;84;22205;-45
2022/05/03 10:23:32;;;;;;;4.60;1.60;;;;;;;24.37;23.58;100721.85;1695289;84;20961;-46
2022/05/03 10:26:09;;;;;;;1.90;1.80;;;;;;;24.52;22.86;100717.27;1695923;84;20952;-45
2022/05/03 10:29:09;;;;;;;5.10;1.60;;;;;;;24.67;24.28;100713.10;1695990;84;20968;-45
2022/05/03 10:32:08;;;;;;;4.28;1.80;;;;;;;24.78;24.17;100712.34;1695879;84;20987;-45
2022/05/03 10:34:53;;;;;;;8.63;1.77;;;;;;;24.61;23.89;100702.48;1695900;84;21139;-46
2022/05/03 10:37:24;;;;;;;4.22;2.87;;;;;;;24.31;24.43;100690.56;1695864;84;20964;-45
2022/05/03 10:39:59;;;;;;;5.37;2.08;;;;;;;24.28;22.67;100694.77;1692667;84;20991;-45
2022/05/03 10:42:29;;;;;;;6.80;1.60;;;;;;;24.03;23.46;100693.89;1696105;83;20991;-45
2022/05/03 10:45:07;;;;;;;2.25;1.60;;;;;;;23.65;25.31;100698.77;1696119;84;20968;-46
2022/05/03 10:47:53;;;;;;;4.25;1.75;;;;;;;23.44;25.77;100695.34;1695866;83;21200;-47
2022/05/03 10:50:26;;;;;;;3.23;1.70;;;;;;;23.11;25.70;100695.33;1696202;83;21576;-46
2022/05/03 10:53:08;;;;;;;5.15;1.77;;;;;;;23.19;27.36;100690.39;1697438;83;21050;-45
2022/05/03 10:55:38;;;;;;;6.08;1.47;;;;;;;23.37;25.84;100686.98;1711171;82;21482;-46
2022/05/03 10:58:30;;;;;;;2.92;1.77;;;;;;;23.71;25.64;100686.89;1701489;84;20968;-45
2022/05/03 11:01:08;;;;;;;2.70;1.75;;;;;;;23.93;24.20;100679.13;1711132;83;21392;-46
2022/05/03 11:03:54;;;;;;;3.22;1.60;;;;;;;23.90;24.68;100678.03;1701494;83;21000;-46
2022/05/03 11:06:26;;;;;;;4.65;1.50;;;;;;;23.64;24.04;100671.48;1711314;83;20889;-44
2022/05/03 11:11:43;;;;;;;1.67;1.55;;;;;;;23.91;25.72;100666.51;1685836;85;20890;-46
2022/05/03 11:14:22;;;;;;;2.77;1.62;;;;;;;24.31;24.31;100661.48;1711162;83;21293;-45
2022/05/03 11:17:13;;;;;;;2.58;1.62;;;;;;;24.58;23.51;100660.39;1675554;84;21012;-45
2022/05/03 11:19:51;;;;;;;4.95;1.80;;;;;;;24.59;22.70;100650.17;1707932;83;21498;-46
2022/05/03 11:22:24;;;;;;;3.80;1.85;;;;;;;24.66;24.18;100656.71;1678448;84;20956;-45
2022/05/03 11:24:56;;;;;;;3.05;2.00;;;;;;;24.78;23.70;100652.79;1711131;83;20944;-45
2022/05/03 11:27:24;;;;;;;9.45;2.20;;;;;;;24.73;23.13;100645.16;1701320;84;21374;-46
2022/05/03 11:30:04;;;;;;;6.30;2.08;;;;;;;24.53;24.28;100644.02;1711085;83;20940;-46
2022/05/03 11:32:42;;;;;;;5.10;2.08;;;;;;;24.58;23.67;100642.36;1701459;84;20964;-46
2022/05/03 11:35:13;;;;;;;2.95;1.67;;;;;;;24.68;23.68;100636.73;1710939;83;21442;-46
2022/05/03 11:37:52;;;;;;;3.45;1.60;;;;;;;24.73;22.99;100633.25;1701573;84;20940;-45
2022/05/03 11:40:26;;;;;;;2.72;1.60;;;;;;;24.70;23.25;100635.30;1711044;83;21167;-46
2022/05/03 11:42:53;;;;;;;10.03;1.87;;;;;;;24.58;23.52;100633.93;1701379;84;21036;-45
2022/05/03 11:45:20;;;;;;;1.77;1.50;;;;;;;24.54;23.41;100626.72;1711032;83;20880;-46
2022/05/03 11:47:51;;;;;;;3.92;1.67;;;;;;;24.61;23.18;100621.79;1701556;84;20940;-49
2022/05/03 11:55:59;;;;;;;5.70;1.87;;;;;;;24.46;23.11;100604.45;1711031;83;21482;-45
2022/05/03 11:58:28;;;;;;;3.55;1.90;;;;;;;24.60;23.55;100604.23;1701243;84;21514;-46
2022/05/03 12:00:54;;;;;;;4.47;1.70;;;;;;;24.61;23.39;100598.47;1710942;83;21497;-45
2022/05/03 12:03:22;;;;;;;5.03;1.50;;;;;;;24.59;22.91;100593.28;1701512;84;20940;-45
2022/05/03 12:05:58;;;;;;;4.37;1.57;;;;;;;24.51;22.81;100592.56;1711178;83;21203;-46
2022/05/03 12:08:25;;;;;;;37.85;2.15;;;;;;;24.58;23.79;100591.60;1682122;85;20944;-46
2022/05/03 12:10:52;;;;;;;2.45;1.60;;;;;;;24.38;23.05;100584.72;1711032;82;20979;-45
2022/05/03 12:13:29;;;;;;;1.90;1.55;;;;;;;23.77;24.31;100588.23;1701397;84;20976;-45
2022/05/03 12:16:06;;;;;;;4.50;1.77;;;;;;;23.26;24.30;100595.80;1711119;83;21018;-45
2022/05/03 12:18:45;;;;;;;2.42;1.67;;;;;;;22.98;24.96;100585.78;1701488;84;21256;-44
2022/05/03 12:21:21;;;;;;;2.40;1.37;;;;;;;23.06;26.67;100583.94;1711090;83;20983;-45
2022/05/03 12:23:49;;;;;;;4.60;1.90;;;;;;;23.31;25.91;100584.90;1701388;84;21071;-47
2022/05/03 12:26:25;;;;;;;33.38;2.80;;;;;;;23.51;25.31;100570.30;1711014;83;21481;-46
2022/05/03 12:28:58;;;;;;;2.87;1.65;;;;;;;23.58;25.29;100572.00;1701307;84;20975;-47
2022/05/03 12:31:38;;;;;;;9.13;2.10;;;;;;;23.45;25.21;100572.03;1710939;82;21023;-46